sensor_id;sensor_type;location;lat;lon;timestamp;P1;durP1;ratioP1;P2;durP2;ratioP2
17586;SDS011;8912;52.336;17.172;2022-08-03T00:00:38;7.45;;;6.75;;
17586;SDS011;8912;52.336;17.172;2022-08-03T00:03:07;8.77;;;7.15;;
17586;SDS011;8912;52.336;17.172;2022-08-03T00:05:36;10.27;;;7.00;;
17586;SDS011;8912;52.336;17.172;2022-08-03T00:08:07;7.55;;;6.60;;
17586;SDS011;8912;52.336;17.172;2022-08-03T00:10:36;8.15;;;6.45;;
17586;SDS011;8912;52.336;17.172;2022-08-03T00:13:05;7.45;;;6.70;;
17586;SDS011;8912;52.336;17.172;2022-08-03T00:15:34;7.38;;;6.75;;
17586;SDS011;8912;52.336;17.172;2022-08-03T00:18:02;6.90;;;6.22;;
17586;SDS011;8912;52.336;17.172;2022-08-03T00:20:31;7.80;;;6.57;;
17586;SDS011;8912;52.336;17.172;2022-08-03T00:23:00;7.65;;;6.70;;
17586;SDS011;8912;52.336;17.172;2022-08-03T00:25:31;9.80;;;6.43;;
17586;SDS011;8912;52.336;17.172;2022-08-03T00:28:00;7.93;;;6.13;;
17586;SDS011;8912;52.336;17.172;2022-08-03T00:30:29;10.70;;;6.60;;
17586;SDS011;8912;52.336;17.172;2022-08-03T00:32:58;6.68;;;6.07;;
17586;SDS011;8912;52.336;17.172;2022-08-03T00:35:28;6.82;;;6.10;;
17586;SDS011;8912;52.336;17.172;2022-08-03T00:38:16;7.88;;;6.47;;
17586;SDS011;8912;52.336;17.172;2022-08-03T00:40:47;6.57;;;6.03;;
17586;SDS011;8912;52.336;17.172;2022-08-03T00:43:16;6.72;;;6.00;;
17586;SDS011;8912;52.336;17.172;2022-08-03T00:45:44;6.85;;;6.13;;
17586;SDS011;8912;52.336;17.172;2022-08-03T00:48:16;6.90;;;5.57;;
17586;SDS011;8912;52.336;17.172;2022-08-03T00:50:59;8.10;;;6.20;;
17586;SDS011;8912;52.336;17.172;2022-08-03T00:53:28;6.75;;;6.00;;
17586;SDS011;8912;52.336;17.172;2022-08-03T00:55:59;7.75;;;5.80;;
17586;SDS011;8912;52.336;17.172;2022-08-03T00:58:28;6.18;;;5.57;;
17586;SDS011;8912;52.336;17.172;2022-08-03T01:00:57;7.55;;;6.07;;
17586;SDS011;8912;52.336;17.172;2022-08-03T01:03:26;6.82;;;5.97;;
17586;SDS011;8912;52.336;17.172;2022-08-03T01:05:57;6.18;;;5.68;;
17586;SDS011;8912;52.336;17.172;2022-08-03T01:08:30;8.65;;;6.20;;
17586;SDS011;8912;52.336;17.172;2022-08-03T01:11:11;9.70;;;5.72;;
17586;SDS011;8912;52.336;17.172;2022-08-03T01:13:47;9.10;;;6.05;;
17586;SDS011;8912;52.336;17.172;2022-08-03T01:16:47;6.60;;;5.95;;
17586;SDS011;8912;52.336;17.172;2022-08-03T01:19:35;8.80;;;6.10;;
17586;SDS011;8912;52.336;17.172;2022-08-03T01:22:18;7.85;;;6.18;;
17586;SDS011;8912;52.336;17.172;2022-08-03T01:25:05;6.13;;;5.63;;
17586;SDS011;8912;52.336;17.172;2022-08-03T01:27:42;7.40;;;5.80;;
17586;SDS011;8912;52.336;17.172;2022-08-03T01:30:23;8.07;;;6.20;;
17586;SDS011;8912;52.336;17.172;2022-08-03T01:32:57;7.15;;;6.38;;
17586;SDS011;8912;52.336;17.172;2022-08-03T01:35:32;7.32;;;5.53;;
17586;SDS011;8912;52.336;17.172;2022-08-03T01:38:06;8.93;;;6.15;;
17586;SDS011;8912;52.336;17.172;2022-08-03T01:40:39;9.48;;;6.55;;
17586;SDS011;8912;52.336;17.172;2022-08-03T01:43:11;11.52;;;7.18;;
17586;SDS011;8912;52.336;17.172;2022-08-03T01:46:04;7.00;;;6.15;;
17586;SDS011;8912;52.336;17.172;2022-08-03T01:48:35;7.05;;;6.35;;
17586;SDS011;8912;52.336;17.172;2022-08-03T01:51:06;6.72;;;5.95;;
17586;SDS011;8912;52.336;17.172;2022-08-03T01:53:37;8.35;;;6.53;;
17586;SDS011;8912;52.336;17.172;2022-08-03T01:56:09;5.97;;;5.40;;
17586;SDS011;8912;52.336;17.172;2022-08-03T01:58:39;12.68;;;5.63;;
17586;SDS011;8912;52.336;17.172;2022-08-03T02:01:11;8.07;;;6.20;;
17586;SDS011;8912;52.336;17.172;2022-08-03T02:03:42;6.35;;;5.75;;
17586;SDS011;8912;52.336;17.172;2022-08-03T02:06:26;8.52;;;6.70;;
17586;SDS011;8912;52.336;17.172;2022-08-03T02:09:18;8.38;;;6.10;;
17586;SDS011;8912;52.336;17.172;2022-08-03T02:11:48;7.40;;;6.68;;
17586;SDS011;8912;52.336;17.172;2022-08-03T02:14:18;6.85;;;6.07;;
17586;SDS011;8912;52.336;17.172;2022-08-03T02:16:50;7.70;;;6.95;;
17586;SDS011;8912;52.336;17.172;2022-08-03T02:19:19;7.10;;;6.40;;
17586;SDS011;8912;52.336;17.172;2022-08-03T02:21:50;7.78;;;6.97;;
17586;SDS011;8912;52.336;17.172;2022-08-03T02:24:27;8.00;;;6.90;;
17586;SDS011;8912;52.336;17.172;2022-08-03T02:26:56;10.48;;;7.00;;
17586;SDS011;8912;52.336;17.172;2022-08-03T02:29:28;7.32;;;6.63;;
17586;SDS011;8912;52.336;17.172;2022-08-03T02:32:11;7.68;;;6.78;;
17586;SDS011;8912;52.336;17.172;2022-08-03T02:34:42;7.35;;;6.22;;
17586;SDS011;8912;52.336;17.172;2022-08-03T02:37:14;9.45;;;6.97;;
17586;SDS011;8912;52.336;17.172;2022-08-03T02:39:46;9.77;;;7.40;;
17586;SDS011;8912;52.336;17.172;2022-08-03T02:42:17;7.80;;;7.00;;
17586;SDS011;8912;52.336;17.172;2022-08-03T02:44:50;8.73;;;7.20;;
17586;SDS011;8912;52.336;17.172;2022-08-03T02:47:23;7.60;;;6.63;;
17586;SDS011;8912;52.336;17.172;2022-08-03T02:50:15;8.27;;;7.28;;
17586;SDS011;8912;52.336;17.172;2022-08-03T02:52:45;8.25;;;7.40;;
17586;SDS011;8912;52.336;17.172;2022-08-03T02:55:15;7.70;;;6.85;;
17586;SDS011;8912;52.336;17.172;2022-08-03T02:57:46;7.40;;;6.80;;
17586;SDS011;8912;52.336;17.172;2022-08-03T03:00:15;8.40;;;7.40;;
17586;SDS011;8912;52.336;17.172;2022-08-03T03:02:56;19.92;;;8.93;;
17586;SDS011;8912;52.336;17.172;2022-08-03T03:05:26;20.10;;;8.65;;
17586;SDS011;8912;52.336;17.172;2022-08-03T03:08:17;8.63;;;7.65;;
17586;SDS011;8912;52.336;17.172;2022-08-03T03:10:54;7.70;;;6.97;;
17586;SDS011;8912;52.336;17.172;2022-08-03T03:13:26;8.35;;;7.47;;
17586;SDS011;8912;52.336;17.172;2022-08-03T03:15:56;9.77;;;8.10;;
17586;SDS011;8912;52.336;17.172;2022-08-03T03:18:29;8.68;;;7.22;;
17586;SDS011;8912;52.336;17.172;2022-08-03T03:20:59;8.00;;;7.20;;
17586;SDS011;8912;52.336;17.172;2022-08-03T03:23:29;10.73;;;7.85;;
17586;SDS011;8912;52.336;17.172;2022-08-03T03:26:02;8.65;;;7.72;;
17586;SDS011;8912;52.336;17.172;2022-08-03T03:28:32;9.80;;;8.25;;
17586;SDS011;8912;52.336;17.172;2022-08-03T03:31:03;8.57;;;7.78;;
17586;SDS011;8912;52.336;17.172;2022-08-03T03:33:35;8.75;;;7.53;;
17586;SDS011;8912;52.336;17.172;2022-08-03T03:36:04;8.50;;;7.63;;
17586;SDS011;8912;52.336;17.172;2022-08-03T03:38:34;8.80;;;7.78;;
17586;SDS011;8912;52.336;17.172;2022-08-03T03:41:03;11.27;;;7.40;;
17586;SDS011;8912;52.336;17.172;2022-08-03T03:43:32;8.27;;;7.47;;
17586;SDS011;8912;52.336;17.172;2022-08-03T03:46:01;9.98;;;7.70;;
17586;SDS011;8912;52.336;17.172;2022-08-03T03:48:30;13.40;;;7.50;;
17586;SDS011;8912;52.336;17.172;2022-08-03T03:51:01;9.15;;;8.05;;
17586;SDS011;8912;52.336;17.172;2022-08-03T03:53:30;7.43;;;6.82;;
17586;SDS011;8912;52.336;17.172;2022-08-03T03:55:59;8.02;;;7.32;;
17586;SDS011;8912;52.336;17.172;2022-08-03T03:58:29;11.30;;;6.88;;
17586;SDS011;8912;52.336;17.172;2022-08-03T04:00:59;11.90;;;7.47;;
17586;SDS011;8912;52.336;17.172;2022-08-03T04:03:28;7.90;;;7.20;;
17586;SDS011;8912;52.336;17.172;2022-08-03T04:05:57;9.23;;;6.68;;
17586;SDS011;8912;52.336;17.172;2022-08-03T04:08:45;7.57;;;6.88;;
17586;SDS011;8912;52.336;17.172;2022-08-03T04:11:33;11.18;;;7.32;;
17586;SDS011;8912;52.336;17.172;2022-08-03T04:14:07;8.95;;;7.07;;
17586;SDS011;8912;52.336;17.172;2022-08-03T04:16:40;8.35;;;7.22;;
17586;SDS011;8912;52.336;17.172;2022-08-03T04:19:10;8.25;;;6.53;;
17586;SDS011;8912;52.336;17.172;2022-08-03T04:21:49;9.02;;;7.00;;
17586;SDS011;8912;52.336;17.172;2022-08-03T04:24:25;7.47;;;6.78;;
17586;SDS011;8912;52.336;17.172;2022-08-03T04:27:00;7.53;;;6.82;;
17586;SDS011;8912;52.336;17.172;2022-08-03T04:29:32;7.72;;;6.93;;
17586;SDS011;8912;52.336;17.172;2022-08-03T04:32:14;7.82;;;7.13;;
17586;SDS011;8912;52.336;17.172;2022-08-03T04:34:44;7.70;;;6.93;;
17586;SDS011;8912;52.336;17.172;2022-08-03T04:37:18;8.15;;;7.35;;
17586;SDS011;8912;52.336;17.172;2022-08-03T04:39:53;7.43;;;6.75;;
17586;SDS011;8912;52.336;17.172;2022-08-03T04:42:25;7.22;;;6.53;;
17586;SDS011;8912;52.336;17.172;2022-08-03T04:44:54;7.20;;;6.50;;
17586;SDS011;8912;52.336;17.172;2022-08-03T04:47:27;9.10;;;6.82;;
17586;SDS011;8912;52.336;17.172;2022-08-03T04:49:59;9.07;;;6.97;;
17586;SDS011;8912;52.336;17.172;2022-08-03T04:52:29;7.85;;;7.00;;
17586;SDS011;8912;52.336;17.172;2022-08-03T04:54:59;8.02;;;7.32;;
17586;SDS011;8912;52.336;17.172;2022-08-03T04:57:28;7.93;;;6.88;;
17586;SDS011;8912;52.336;17.172;2022-08-03T04:59:57;7.35;;;6.65;;
17586;SDS011;8912;52.336;17.172;2022-08-03T05:02:29;9.60;;;6.93;;
17586;SDS011;8912;52.336;17.172;2022-08-03T05:04:58;9.93;;;6.38;;
17586;SDS011;8912;52.336;17.172;2022-08-03T05:07:27;8.32;;;6.05;;
17586;SDS011;8912;52.336;17.172;2022-08-03T05:10:05;6.10;;;5.60;;
17586;SDS011;8912;52.336;17.172;2022-08-03T05:12:42;8.07;;;5.65;;
17586;SDS011;8912;52.336;17.172;2022-08-03T05:15:12;5.78;;;5.28;;
17586;SDS011;8912;52.336;17.172;2022-08-03T05:17:41;5.78;;;5.18;;
17586;SDS011;8912;52.336;17.172;2022-08-03T05:20:10;6.00;;;5.32;;
17586;SDS011;8912;52.336;17.172;2022-08-03T05:22:44;7.40;;;5.20;;
17586;SDS011;8912;52.336;17.172;2022-08-03T05:25:15;5.32;;;4.93;;
17586;SDS011;8912;52.336;17.172;2022-08-03T05:27:48;6.07;;;5.22;;
17586;SDS011;8912;52.336;17.172;2022-08-03T05:30:17;7.47;;;5.40;;
17586;SDS011;8912;52.336;17.172;2022-08-03T05:32:59;5.85;;;5.35;;
17586;SDS011;8912;52.336;17.172;2022-08-03T05:35:30;7.75;;;5.03;;
17586;SDS011;8912;52.336;17.172;2022-08-03T05:38:20;8.45;;;4.60;;
17586;SDS011;8912;52.336;17.172;2022-08-03T05:41:02;7.10;;;5.00;;
17586;SDS011;8912;52.336;17.172;2022-08-03T05:43:49;6.03;;;5.47;;
17586;SDS011;8912;52.336;17.172;2022-08-03T05:46:19;7.38;;;5.10;;
17586;SDS011;8912;52.336;17.172;2022-08-03T05:48:49;5.93;;;5.40;;
17586;SDS011;8912;52.336;17.172;2022-08-03T05:51:18;5.60;;;5.03;;
17586;SDS011;8912;52.336;17.172;2022-08-03T05:53:47;5.68;;;5.22;;
17586;SDS011;8912;52.336;17.172;2022-08-03T05:56:20;7.32;;;5.70;;
17586;SDS011;8912;52.336;17.172;2022-08-03T05:58:49;6.78;;;5.57;;
17586;SDS011;8912;52.336;17.172;2022-08-03T06:01:19;6.40;;;5.90;;
17586;SDS011;8912;52.336;17.172;2022-08-03T06:03:49;7.03;;;6.30;;
17586;SDS011;8912;52.336;17.172;2022-08-03T06:06:19;6.22;;;5.63;;
17586;SDS011;8912;52.336;17.172;2022-08-03T06:08:48;7.72;;;5.72;;
17586;SDS011;8912;52.336;17.172;2022-08-03T06:11:18;5.97;;;5.47;;
17586;SDS011;8912;52.336;17.172;2022-08-03T06:13:47;6.90;;;6.10;;
17586;SDS011;8912;52.336;17.172;2022-08-03T06:16:15;5.88;;;5.45;;
17586;SDS011;8912;52.336;17.172;2022-08-03T06:18:44;7.07;;;6.45;;
17586;SDS011;8912;52.336;17.172;2022-08-03T06:21:13;7.20;;;6.30;;
17586;SDS011;8912;52.336;17.172;2022-08-03T06:23:44;7.22;;;6.53;;
17586;SDS011;8912;52.336;17.172;2022-08-03T06:26:23;8.50;;;6.40;;
17586;SDS011;8912;52.336;17.172;2022-08-03T06:28:54;7.35;;;6.07;;
17586;SDS011;8912;52.336;17.172;2022-08-03T06:31:25;7.32;;;6.60;;
17586;SDS011;8912;52.336;17.172;2022-08-03T06:34:03;7.75;;;6.25;;
17586;SDS011;8912;52.336;17.172;2022-08-03T06:36:52;9.20;;;6.32;;
17586;SDS011;8912;52.336;17.172;2022-08-03T06:39:28;8.27;;;6.40;;
17586;SDS011;8912;52.336;17.172;2022-08-03T06:41:58;7.20;;;6.50;;
17586;SDS011;8912;52.336;17.172;2022-08-03T06:44:27;6.68;;;6.18;;
17586;SDS011;8912;52.336;17.172;2022-08-03T06:46:56;7.72;;;6.30;;
17586;SDS011;8912;52.336;17.172;2022-08-03T06:49:25;8.00;;;6.18;;
17586;SDS011;8912;52.336;17.172;2022-08-03T06:51:53;7.53;;;6.35;;
17586;SDS011;8912;52.336;17.172;2022-08-03T06:54:33;6.95;;;6.35;;
17586;SDS011;8912;52.336;17.172;2022-08-03T06:57:05;7.45;;;6.35;;
17586;SDS011;8912;52.336;17.172;2022-08-03T06:59:37;7.60;;;6.00;;
17586;SDS011;8912;52.336;17.172;2022-08-03T07:02:26;7.80;;;6.63;;
17586;SDS011;8912;52.336;17.172;2022-08-03T07:04:55;6.20;;;5.70;;
17586;SDS011;8912;52.336;17.172;2022-08-03T07:07:24;7.88;;;7.18;;
17586;SDS011;8912;52.336;17.172;2022-08-03T07:09:53;6.47;;;5.88;;
17586;SDS011;8912;52.336;17.172;2022-08-03T07:12:26;7.45;;;6.35;;
17586;SDS011;8912;52.336;17.172;2022-08-03T07:14:56;5.68;;;5.28;;
17586;SDS011;8912;52.336;17.172;2022-08-03T07:17:29;9.65;;;5.82;;
17586;SDS011;8912;52.336;17.172;2022-08-03T07:19:59;5.75;;;4.60;;
17586;SDS011;8912;52.336;17.172;2022-08-03T07:22:29;4.57;;;4.18;;
17586;SDS011;8912;52.336;17.172;2022-08-03T07:24:58;5.95;;;3.80;;
17586;SDS011;8912;52.336;17.172;2022-08-03T07:27:29;3.83;;;3.53;;
17586;SDS011;8912;52.336;17.172;2022-08-03T07:29:58;6.13;;;4.13;;
17586;SDS011;8912;52.336;17.172;2022-08-03T07:32:27;4.15;;;3.78;;
17586;SDS011;8912;52.336;17.172;2022-08-03T07:34:57;7.38;;;4.55;;
17586;SDS011;8912;52.336;17.172;2022-08-03T07:37:28;4.45;;;3.47;;
17586;SDS011;8912;52.336;17.172;2022-08-03T07:39:57;4.38;;;3.95;;
17586;SDS011;8912;52.336;17.172;2022-08-03T07:42:26;4.90;;;3.13;;
17586;SDS011;8912;52.336;17.172;2022-08-03T07:44:57;4.15;;;3.85;;
17586;SDS011;8912;52.336;17.172;2022-08-03T07:47:27;5.63;;;3.60;;
17586;SDS011;8912;52.336;17.172;2022-08-03T07:50:02;4.20;;;3.80;;
17586;SDS011;8912;52.336;17.172;2022-08-03T07:52:35;4.70;;;4.13;;
17586;SDS011;8912;52.336;17.172;2022-08-03T07:55:18;5.00;;;3.15;;
17586;SDS011;8912;52.336;17.172;2022-08-03T07:57:59;4.00;;;3.20;;
17586;SDS011;8912;52.336;17.172;2022-08-03T08:00:29;6.50;;;3.60;;
17586;SDS011;8912;52.336;17.172;2022-08-03T08:02:58;6.00;;;3.90;;
17586;SDS011;8912;52.336;17.172;2022-08-03T08:05:27;3.33;;;3.13;;
17586;SDS011;8912;52.336;17.172;2022-08-03T08:07:56;4.13;;;3.60;;
17586;SDS011;8912;52.336;17.172;2022-08-03T08:10:25;7.43;;;4.13;;
17586;SDS011;8912;52.336;17.172;2022-08-03T08:12:55;4.00;;;3.60;;
17586;SDS011;8912;52.336;17.172;2022-08-03T08:15:26;6.68;;;3.40;;
17586;SDS011;8912;52.336;17.172;2022-08-03T08:17:55;4.10;;;3.33;;
17586;SDS011;8912;52.336;17.172;2022-08-03T08:20:26;4.05;;;3.30;;
17586;SDS011;8912;52.336;17.172;2022-08-03T08:22:58;8.52;;;3.55;;
17586;SDS011;8912;52.336;17.172;2022-08-03T08:25:29;4.03;;;3.72;;
17586;SDS011;8912;52.336;17.172;2022-08-03T08:27:59;4.65;;;3.60;;
17586;SDS011;8912;52.336;17.172;2022-08-03T08:30:57;4.30;;;3.90;;
17586;SDS011;8912;52.336;17.172;2022-08-03T08:33:28;4.35;;;3.70;;
17586;SDS011;8912;52.336;17.172;2022-08-03T08:36:17;4.70;;;3.78;;
17586;SDS011;8912;52.336;17.172;2022-08-03T08:38:46;10.68;;;3.88;;
17586;SDS011;8912;52.336;17.172;2022-08-03T08:41:15;4.72;;;3.75;;
17586;SDS011;8912;52.336;17.172;2022-08-03T08:43:44;5.60;;;3.10;;
17586;SDS011;8912;52.336;17.172;2022-08-03T08:46:14;6.63;;;3.90;;
17586;SDS011;8912;52.336;17.172;2022-08-03T08:48:50;3.30;;;3.10;;
17586;SDS011;8912;52.336;17.172;2022-08-03T08:51:20;3.17;;;2.88;;
17586;SDS011;8912;52.336;17.172;2022-08-03T08:54:14;3.63;;;3.10;;
17586;SDS011;8912;52.336;17.172;2022-08-03T08:56:45;3.85;;;3.10;;
17586;SDS011;8912;52.336;17.172;2022-08-03T08:59:15;3.45;;;3.13;;
17586;SDS011;8912;52.336;17.172;2022-08-03T09:01:46;5.20;;;3.58;;
17586;SDS011;8912;52.336;17.172;2022-08-03T09:04:15;4.05;;;3.00;;
17586;SDS011;8912;52.336;17.172;2022-08-03T09:06:44;3.25;;;2.95;;
17586;SDS011;8912;52.336;17.172;2022-08-03T09:09:33;6.72;;;2.97;;
17586;SDS011;8912;52.336;17.172;2022-08-03T09:12:23;3.80;;;2.78;;
17586;SDS011;8912;52.336;17.172;2022-08-03T09:15:15;3.88;;;2.67;;
17586;SDS011;8912;52.336;17.172;2022-08-03T09:17:46;2.80;;;2.60;;
17586;SDS011;8912;52.336;17.172;2022-08-03T09:20:17;5.10;;;2.97;;
17586;SDS011;8912;52.336;17.172;2022-08-03T09:22:50;3.92;;;2.88;;
17586;SDS011;8912;52.336;17.172;2022-08-03T09:25:30;3.10;;;2.90;;
17586;SDS011;8912;52.336;17.172;2022-08-03T09:28:04;2.80;;;2.60;;
17586;SDS011;8912;52.336;17.172;2022-08-03T09:30:36;3.03;;;2.75;;
17586;SDS011;8912;52.336;17.172;2022-08-03T09:33:08;3.28;;;2.95;;
17586;SDS011;8912;52.336;17.172;2022-08-03T09:35:41;2.88;;;2.67;;
17586;SDS011;8912;52.336;17.172;2022-08-03T09:38:21;2.78;;;2.58;;
17586;SDS011;8912;52.336;17.172;2022-08-03T09:40:52;3.80;;;2.40;;
17586;SDS011;8912;52.336;17.172;2022-08-03T09:43:26;3.25;;;2.70;;
17586;SDS011;8912;52.336;17.172;2022-08-03T09:46:01;5.90;;;2.40;;
17586;SDS011;8912;52.336;17.172;2022-08-03T09:48:32;6.07;;;2.45;;
17586;SDS011;8912;52.336;17.172;2022-08-03T09:51:03;2.25;;;2.08;;
17586;SDS011;8912;52.336;17.172;2022-08-03T09:53:53;3.22;;;2.10;;
17586;SDS011;8912;52.336;17.172;2022-08-03T09:56:37;2.28;;;2.08;;
17586;SDS011;8912;52.336;17.172;2022-08-03T09:59:10;2.65;;;2.55;;
17586;SDS011;8912;52.336;17.172;2022-08-03T10:01:40;5.95;;;2.75;;
17586;SDS011;8912;52.336;17.172;2022-08-03T10:04:14;3.13;;;2.50;;
17586;SDS011;8912;52.336;17.172;2022-08-03T10:06:44;5.47;;;2.45;;
17586;SDS011;8912;52.336;17.172;2022-08-03T10:09:27;11.82;;;3.00;;
17586;SDS011;8912;52.336;17.172;2022-08-03T10:11:56;2.85;;;2.58;;
17586;SDS011;8912;52.336;17.172;2022-08-03T10:14:35;2.40;;;2.30;;
17586;SDS011;8912;52.336;17.172;2022-08-03T10:17:05;4.18;;;2.25;;
17586;SDS011;8912;52.336;17.172;2022-08-03T10:19:35;6.90;;;2.83;;
17586;SDS011;8912;52.336;17.172;2022-08-03T10:22:06;2.53;;;2.33;;
17586;SDS011;8912;52.336;17.172;2022-08-03T10:24:41;3.90;;;2.60;;
17586;SDS011;8912;52.336;17.172;2022-08-03T10:27:18;24.50;;;3.65;;
17586;SDS011;8912;52.336;17.172;2022-08-03T10:29:50;5.75;;;2.65;;
17586;SDS011;8912;52.336;17.172;2022-08-03T10:32:21;4.53;;;2.50;;
17586;SDS011;8912;52.336;17.172;2022-08-03T10:34:58;2.60;;;2.40;;
17586;SDS011;8912;52.336;17.172;2022-08-03T10:37:49;4.13;;;2.42;;
17586;SDS011;8912;52.336;17.172;2022-08-03T10:40:23;2.92;;;2.55;;
17586;SDS011;8912;52.336;17.172;2022-08-03T10:43:17;8.52;;;2.90;;
17586;SDS011;8912;52.336;17.172;2022-08-03T10:45:47;3.30;;;2.60;;
17586;SDS011;8912;52.336;17.172;2022-08-03T10:48:16;2.72;;;2.38;;
17586;SDS011;8912;52.336;17.172;2022-08-03T10:50:48;5.38;;;2.70;;
17586;SDS011;8912;52.336;17.172;2022-08-03T10:53:32;2.35;;;2.25;;
17586;SDS011;8912;52.336;17.172;2022-08-03T10:56:02;2.58;;;2.38;;
17586;SDS011;8912;52.336;17.172;2022-08-03T10:59:09;3.28;;;2.72;;
17586;SDS011;8912;52.336;17.172;2022-08-03T11:01:49;2.60;;;2.40;;
17586;SDS011;8912;52.336;17.172;2022-08-03T11:04:27;2.63;;;2.42;;
17586;SDS011;8912;52.336;17.172;2022-08-03T11:09:49;5.97;;;3.10;;
17586;SDS011;8912;52.336;17.172;2022-08-03T11:12:21;6.60;;;2.58;;
17586;SDS011;8912;52.336;17.172;2022-08-03T11:14:58;5.30;;;2.50;;
17586;SDS011;8912;52.336;17.172;2022-08-03T11:17:27;2.80;;;2.55;;
17586;SDS011;8912;52.336;17.172;2022-08-03T11:19:56;2.95;;;2.75;;
17586;SDS011;8912;52.336;17.172;2022-08-03T11:22:46;2.95;;;2.53;;
17586;SDS011;8912;52.336;17.172;2022-08-03T11:25:16;4.95;;;2.70;;
17586;SDS011;8912;52.336;17.172;2022-08-03T11:28:24;5.45;;;2.72;;
17586;SDS011;8912;52.336;17.172;2022-08-03T11:30:54;3.05;;;2.40;;
17586;SDS011;8912;52.336;17.172;2022-08-03T11:33:29;1.85;;;1.67;;
17586;SDS011;8912;52.336;17.172;2022-08-03T11:35:59;1.85;;;1.70;;
17586;SDS011;8912;52.336;17.172;2022-08-03T11:38:30;2.33;;;1.75;;
17586;SDS011;8912;52.336;17.172;2022-08-03T11:40:59;2.20;;;1.92;;
17586;SDS011;8912;52.336;17.172;2022-08-03T11:43:43;2.17;;;2.00;;
17586;SDS011;8912;52.336;17.172;2022-08-03T11:46:13;3.17;;;2.05;;
17586;SDS011;8912;52.336;17.172;2022-08-03T11:49:01;4.93;;;2.08;;
17586;SDS011;8912;52.336;17.172;2022-08-03T11:51:36;3.22;;;2.13;;
17586;SDS011;8912;52.336;17.172;2022-08-03T11:54:08;7.18;;;2.17;;
17586;SDS011;8912;52.336;17.172;2022-08-03T11:56:43;3.45;;;2.25;;
17586;SDS011;8912;52.336;17.172;2022-08-03T11:59:14;2.40;;;2.20;;
17586;SDS011;8912;52.336;17.172;2022-08-03T12:01:48;1.95;;;1.80;;
17586;SDS011;8912;52.336;17.172;2022-08-03T12:04:17;2.40;;;1.70;;
17586;SDS011;8912;52.336;17.172;2022-08-03T12:06:59;3.53;;;2.10;;
17586;SDS011;8912;52.336;17.172;2022-08-03T12:09:29;2.40;;;1.98;;
17586;SDS011;8912;52.336;17.172;2022-08-03T12:12:02;2.28;;;2.08;;
17586;SDS011;8912;52.336;17.172;2022-08-03T12:14:31;3.45;;;2.45;;
17586;SDS011;8912;52.336;17.172;2022-08-03T12:17:17;2.50;;;1.90;;
17586;SDS011;8912;52.336;17.172;2022-08-03T12:19:46;2.00;;;1.90;;
17586;SDS011;8912;52.336;17.172;2022-08-03T12:22:15;4.05;;;2.17;;
17586;SDS011;8912;52.336;17.172;2022-08-03T12:24:45;2.13;;;2.03;;
17586;SDS011;8912;52.336;17.172;2022-08-03T12:27:21;2.53;;;2.30;;
17586;SDS011;8912;52.336;17.172;2022-08-03T12:29:52;2.13;;;1.80;;
17586;SDS011;8912;52.336;17.172;2022-08-03T12:32:24;2.70;;;1.92;;
17586;SDS011;8912;52.336;17.172;2022-08-03T12:34:54;2.45;;;1.90;;
17586;SDS011;8912;52.336;17.172;2022-08-03T12:37:27;3.22;;;1.90;;
17586;SDS011;8912;52.336;17.172;2022-08-03T12:39:59;7.35;;;2.35;;
17586;SDS011;8912;52.336;17.172;2022-08-03T12:42:36;4.07;;;2.10;;
17586;SDS011;8912;52.336;17.172;2022-08-03T12:45:22;4.55;;;2.05;;
17586;SDS011;8912;52.336;17.172;2022-08-03T12:47:53;3.13;;;1.83;;
17586;SDS011;8912;52.336;17.172;2022-08-03T12:50:24;2.90;;;1.90;;
17586;SDS011;8912;52.336;17.172;2022-08-03T12:52:54;2.17;;;1.88;;
17586;SDS011;8912;52.336;17.172;2022-08-03T12:55:25;2.75;;;1.70;;
17586;SDS011;8912;52.336;17.172;2022-08-03T12:58:27;5.03;;;2.00;;
17586;SDS011;8912;52.336;17.172;2022-08-03T13:00:59;5.80;;;2.05;;
17586;SDS011;8912;52.336;17.172;2022-08-03T13:03:38;8.13;;;2.40;;
17586;SDS011;8912;52.336;17.172;2022-08-03T13:06:10;1.90;;;1.80;;
17586;SDS011;8912;52.336;17.172;2022-08-03T13:08:40;2.33;;;2.10;;
17586;SDS011;8912;52.336;17.172;2022-08-03T13:11:21;5.97;;;2.00;;
17586;SDS011;8912;52.336;17.172;2022-08-03T13:14:12;2.95;;;2.08;;
17586;SDS011;8912;52.336;17.172;2022-08-03T13:16:45;3.20;;;2.00;;
17586;SDS011;8912;52.336;17.172;2022-08-03T13:19:15;2.20;;;2.00;;
17586;SDS011;8912;52.336;17.172;2022-08-03T13:21:44;2.95;;;1.80;;
17586;SDS011;8912;52.336;17.172;2022-08-03T13:24:30;1.98;;;1.88;;
17586;SDS011;8912;52.336;17.172;2022-08-03T13:27:01;2.92;;;1.90;;
17586;SDS011;8912;52.336;17.172;2022-08-03T13:29:52;2.45;;;2.25;;
17586;SDS011;8912;52.336;17.172;2022-08-03T13:32:21;5.72;;;2.33;;
17586;SDS011;8912;52.336;17.172;2022-08-03T13:34:51;2.20;;;2.00;;
17586;SDS011;8912;52.336;17.172;2022-08-03T13:37:19;2.30;;;2.10;;
17586;SDS011;8912;52.336;17.172;2022-08-03T13:39:49;2.05;;;1.88;;
17586;SDS011;8912;52.336;17.172;2022-08-03T13:42:28;4.68;;;2.10;;
17586;SDS011;8912;52.336;17.172;2022-08-03T13:44:58;7.78;;;2.30;;
17586;SDS011;8912;52.336;17.172;2022-08-03T13:47:28;4.07;;;2.05;;
17586;SDS011;8912;52.336;17.172;2022-08-03T13:49:57;10.07;;;2.30;;
17586;SDS011;8912;52.336;17.172;2022-08-03T13:52:29;5.10;;;2.00;;
17586;SDS011;8912;52.336;17.172;2022-08-03T13:55:00;1.77;;;1.67;;
17586;SDS011;8912;52.336;17.172;2022-08-03T13:57:31;6.60;;;2.20;;
17586;SDS011;8912;52.336;17.172;2022-08-03T14:00:20;4.13;;;2.22;;
17586;SDS011;8912;52.336;17.172;2022-08-03T14:02:58;2.05;;;1.90;;
17586;SDS011;8912;52.336;17.172;2022-08-03T14:05:38;15.90;;;3.22;;
17586;SDS011;8912;52.336;17.172;2022-08-03T14:08:08;2.35;;;2.00;;
17586;SDS011;8912;52.336;17.172;2022-08-03T14:10:38;2.20;;;2.00;;
17586;SDS011;8912;52.336;17.172;2022-08-03T14:13:10;3.33;;;2.15;;
17586;SDS011;8912;52.336;17.172;2022-08-03T14:15:44;3.55;;;1.80;;
17586;SDS011;8912;52.336;17.172;2022-08-03T14:18:17;2.30;;;2.03;;
17586;SDS011;8912;52.336;17.172;2022-08-03T14:20:59;4.13;;;2.05;;
17586;SDS011;8912;52.336;17.172;2022-08-03T14:23:32;2.55;;;2.25;;
17586;SDS011;8912;52.336;17.172;2022-08-03T14:26:03;2.85;;;2.05;;
17586;SDS011;8912;52.336;17.172;2022-08-03T14:28:34;2.47;;;1.80;;
17586;SDS011;8912;52.336;17.172;2022-08-03T14:31:03;4.32;;;2.03;;
17586;SDS011;8912;52.336;17.172;2022-08-03T14:33:41;2.83;;;1.73;;
17586;SDS011;8912;52.336;17.172;2022-08-03T14:36:10;5.65;;;2.08;;
17586;SDS011;8912;52.336;17.172;2022-08-03T14:38:38;2.22;;;2.05;;
17586;SDS011;8912;52.336;17.172;2022-08-03T14:41:07;2.65;;;2.03;;
17586;SDS011;8912;52.336;17.172;2022-08-03T14:43:47;2.28;;;2.10;;
17586;SDS011;8912;52.336;17.172;2022-08-03T14:46:28;3.03;;;1.90;;
17586;SDS011;8912;52.336;17.172;2022-08-03T14:48:58;2.20;;;2.00;;
17586;SDS011;8912;52.336;17.172;2022-08-03T14:51:46;6.10;;;2.10;;
17586;SDS011;8912;52.336;17.172;2022-08-03T14:54:19;6.00;;;2.40;;
17586;SDS011;8912;52.336;17.172;2022-08-03T14:56:49;2.35;;;2.25;;
17586;SDS011;8912;52.336;17.172;2022-08-03T14:59:20;2.58;;;1.90;;
17586;SDS011;8912;52.336;17.172;2022-08-03T15:01:49;4.63;;;2.20;;
17586;SDS011;8912;52.336;17.172;2022-08-03T15:04:32;3.58;;;2.33;;
17586;SDS011;8912;52.336;17.172;2022-08-03T15:07:01;4.38;;;1.95;;
17586;SDS011;8912;52.336;17.172;2022-08-03T15:09:30;2.65;;;1.90;;
17586;SDS011;8912;52.336;17.172;2022-08-03T15:11:59;53.92;;;6.45;;
17586;SDS011;8912;52.336;17.172;2022-08-03T15:14:29;4.95;;;2.15;;
17586;SDS011;8912;52.336;17.172;2022-08-03T15:17:00;4.65;;;2.20;;
17586;SDS011;8912;52.336;17.172;2022-08-03T15:19:29;1.75;;;1.65;;
17586;SDS011;8912;52.336;17.172;2022-08-03T15:22:18;7.05;;;2.28;;
17586;SDS011;8912;52.336;17.172;2022-08-03T15:25:00;4.30;;;1.90;;
17586;SDS011;8912;52.336;17.172;2022-08-03T15:27:50;5.45;;;1.98;;
17586;SDS011;8912;52.336;17.172;2022-08-03T15:30:31;9.77;;;2.92;;